createdAt,value
2022-11-18T00:03:17.412Z,4.55
2022-11-18T00:13:38.262Z,3.85
2022-11-18T00:33:45.206Z,4.15
2022-11-18T00:43:49.319Z,4.90
2022-11-18T00:53:52.003Z,5.30
2022-11-18T01:03:56.119Z,4.82
2022-11-18T01:13:58.801Z,4.80
2022-11-18T01:24:03.224Z,5.35
2022-11-18T01:34:05.829Z,5.38
2022-11-18T01:44:41.815Z,4.47
2022-11-18T01:54:52.212Z,5.25
2022-11-18T02:04:57.709Z,4.03
2022-11-18T02:15:02.838Z,3.72
2022-11-18T02:25:13.804Z,5.30
2022-11-18T02:35:23.193Z,4.55
2022-11-18T02:45:29.110Z,4.53
2022-11-18T02:55:37.604Z,3.90
2022-11-18T03:05:47.872Z,3.45
2022-11-18T03:16:00.204Z,4.07
2022-11-18T03:26:06.093Z,4.32
2022-11-18T03:36:13.955Z,4.05
2022-11-18T03:46:20.258Z,4.25
2022-11-18T03:56:27.493Z,3.58
2022-11-18T04:06:36.147Z,3.55
2022-11-18T04:16:42.146Z,3.92
2022-11-18T04:26:44.814Z,4.65
2022-11-18T04:36:48.847Z,3.90
2022-11-18T04:46:51.663Z,4.45
2022-11-18T04:56:56.733Z,4.18
2022-11-18T05:07:00.561Z,5.30
2022-11-18T05:17:06.795Z,4.32
2022-11-18T05:27:09.804Z,5.93
2022-11-18T05:37:13.967Z,4.57
2022-11-18T05:47:16.656Z,5.53
2022-11-18T05:57:20.683Z,5.28
2022-11-18T06:07:28.771Z,5.88
2022-11-18T06:17:37.099Z,5.10
2022-11-18T06:27:39.759Z,6.63
2022-11-18T06:37:43.782Z,6.80
2022-11-18T06:47:47.361Z,7.60
2022-11-18T06:57:51.547Z,5.93
2022-11-18T07:07:54.353Z,6.78
2022-11-18T07:17:58.456Z,7.35
2022-11-18T07:28:01.148Z,6.30
2022-11-18T07:38:05.252Z,5.95
2022-11-18T07:48:08.016Z,6.85
2022-11-18T07:58:12.079Z,7.25
2022-11-18T08:08:14.816Z,6.72
2022-11-18T08:18:18.917Z,7.20
2022-11-18T08:28:22.453Z,7.35
2022-11-18T08:38:26.607Z,7.20
2022-11-18T08:48:29.299Z,7.13
2022-11-18T08:58:33.366Z,7.30
2022-11-18T09:08:36.397Z,8.50
2022-11-18T09:18:40.582Z,7.95
2022-11-18T09:28:44.239Z,7.75
2022-11-18T09:38:51.801Z,7.57
2022-11-18T09:49:16.870Z,7.68
2022-11-18T09:59:24.182Z,7.45
2022-11-18T10:09:34.350Z,9.43
2022-11-18T10:19:43.136Z,9.60
2022-11-18T10:29:47.079Z,8.52
2022-11-18T10:39:53.544Z,8.35
2022-11-18T10:49:58.304Z,9.02
2022-11-18T11:00:02.419Z,9.73
2022-11-18T11:10:23.250Z,10.20
2022-11-18T11:20:27.751Z,9.75
2022-11-18T11:30:38.793Z,9.00
2022-11-18T11:40:55.256Z,10.15
2022-11-18T11:51:05.006Z,8.85
2022-11-18T12:01:19.579Z,8.97
2022-11-18T12:11:30.987Z,10.82
2022-11-18T12:22:03.914Z,9.32
2022-11-18T12:32:26.881Z,7.28
2022-11-18T12:43:02.881Z,10.20
2022-11-18T12:53:05.615Z,9.95
2022-11-18T13:03:09.686Z,9.30
2022-11-18T13:13:23.851Z,9.55
2022-11-18T13:23:50.177Z,10.68
2022-11-18T13:33:53.543Z,8.18
2022-11-18T13:43:57.565Z,8.02
2022-11-18T13:54:00.374Z,8.35
2022-11-18T14:04:06.290Z,7.38
2022-11-18T14:14:10.948Z,9.32
2022-11-18T14:24:16.438Z,8.40
2022-11-18T14:34:24.653Z,7.85
2022-11-18T14:44:30.485Z,7.22
2022-11-18T14:54:33.708Z,7.93
2022-11-18T15:04:38.146Z,9.05
2022-11-18T15:14:40.815Z,9.13
2022-11-18T15:24:44.802Z,8.25
2022-11-18T15:34:48.502Z,10.65
2022-11-18T15:44:52.510Z,8.18
2022-11-18T15:54:55.434Z,10.68
2022-11-18T16:04:59.844Z,11.25
2022-11-18T16:15:20.167Z,11.48
2022-11-18T16:25:24.178Z,10.83
2022-11-18T16:35:27.893Z,10.38
2022-11-18T16:45:32.006Z,10.80
2022-11-18T16:55:34.674Z,10.88
2022-11-18T17:05:38.637Z,11.77
2022-11-18T17:15:41.230Z,10.25
2022-11-18T17:25:45.162Z,11.07
2022-11-18T17:35:47.837Z,10.80
2022-11-18T17:45:53.091Z,9.70
2022-11-18T17:55:58.375Z,8.50
2022-11-18T18:06:08.693Z,6.00
2022-11-18T18:16:11.303Z,4.68
2022-11-18T18:26:15.552Z,5.63
2022-11-18T18:36:19.790Z,5.88
2022-11-18T18:46:32.212Z,3.90
2022-11-18T18:56:35.133Z,5.03
2022-11-18T19:17:10.153Z,2.92
2022-11-18T19:27:15.504Z,2.80
2022-11-18T19:37:18.142Z,2.58
2022-11-18T19:47:22.652Z,2.83
2022-11-18T19:57:25.352Z,3.28
2022-11-18T20:07:29.481Z,2.42
2022-11-18T20:17:32.231Z,1.92
2022-11-18T20:27:36.289Z,2.28
2022-11-18T20:37:39.064Z,2.00
2022-11-18T20:47:43.047Z,1.98
2022-11-18T20:57:45.704Z,2.25
2022-11-18T21:07:50.484Z,1.88
2022-11-18T21:17:53.089Z,1.88
2022-11-18T21:27:57.090Z,1.67
2022-11-18T21:38:00.069Z,2.00
2022-11-18T21:48:04.291Z,1.75
2022-11-18T21:58:06.908Z,2.20
2022-11-18T22:08:11.049Z,2.00
2022-11-18T22:18:13.774Z,1.23
2022-11-18T22:28:17.699Z,2.70
2022-11-18T22:38:20.329Z,2.22
2022-11-18T22:48:24.270Z,2.13
2022-11-18T22:58:26.858Z,2.47
2022-11-18T23:08:33.806Z,2.35
2022-11-18T23:18:36.454Z,2.28
2022-11-18T23:28:41.428Z,3.00
2022-11-18T23:38:44.629Z,3.67
2022-11-18T23:48:48.657Z,3.00
2022-11-18T23:58:52.827Z,2.25
